Time;durP1;ratioP1;P1;durP2;ratioP2;P2;SDS_P1;SDS_P2;PMS_P1;PMS_P2;Temp;Humidity;BMP_temperature;BMP_pressure;BME280_temperature;BME280_humidity;BME280_pressure;Samples;Min_cycle;Max_cycle;Signal;HPM_P1;HPM_P2
2023/05/26 00:00:34;;;;;;;30.83;6.30;;;10.90;99.90;;;;;;4985400;28;20053;-56
2023/05/26 00:03:02;;;;;;;30.35;5.78;;;9.60;99.90;;;;;;4985393;28;20042;-57
2023/05/26 00:05:28;;;;;;;26.30;5.57;;;9.60;99.90;;;;;;4985326;28;20045;-55
2023/05/26 00:07:54;;;;;;;30.98;6.18;;;9.50;99.90;;;;;;4985846;28;20042;-55
2023/05/26 00:10:20;;;;;;;30.98;6.15;;;9.50;99.90;;;;;;4985204;28;20193;-57
2023/05/26 00:12:45;;;;;;;30.60;6.40;;;9.60;99.90;;;;;;4984028;28;20054;-54
2023/05/26 00:15:11;;;;;;;26.23;6.07;;;9.50;99.90;;;;;;4985384;28;20081;-58
2023/05/26 00:17:36;;;;;;;29.23;5.90;;;9.50;99.90;;;;;;4985380;28;20351;-55
2023/05/26 00:20:04;;;;;;;26.48;5.80;;;9.50;99.90;;;;;;4985071;28;20038;-56
2023/05/26 00:22:30;;;;;;;27.67;6.55;;;9.50;99.90;;;;;;4967302;28;20077;-57
2023/05/26 00:24:55;;;;;;;27.42;6.03;;;9.50;99.90;;;;;;4985595;28;20520;-55
2023/05/26 00:27:21;;;;;;;31.23;6.68;;;9.50;99.90;;;;;;4984959;28;20366;-55
2023/05/26 00:29:47;;;;;;;30.40;6.10;;;9.50;99.90;;;;;;4984139;28;20153;-55
2023/05/26 00:32:13;;;;;;;25.17;5.35;;;9.50;99.90;;;;;;4967718;28;20059;-56
2023/05/26 00:34:39;;;;;;;28.90;5.88;;;9.50;99.90;;;;;;4985364;28;20039;-55
2023/05/26 00:37:04;;;;;;;23.23;6.00;;;9.40;99.90;;;;;;4984964;28;20096;-57
2023/05/26 00:39:30;;;;;;;25.70;5.53;;;9.40;99.90;;;;;;4984952;28;20050;-56
2023/05/26 00:41:57;;;;;;;26.77;6.50;;;9.30;99.90;;;;;;4985611;28;20121;-55
2023/05/26 00:44:23;;;;;;;27.33;6.00;;;9.40;99.90;;;;;;4984283;28;20181;-56
2023/05/26 00:46:48;;;;;;;29.10;6.38;;;9.30;99.90;;;;;;4984602;28;20082;-56
2023/05/26 00:49:14;;;;;;;32.92;5.93;;;9.30;99.90;;;;;;4984965;28;20042;-56
2023/05/26 00:51:43;;;;;;;24.63;5.85;;;9.30;99.90;;;;;;4985069;28;20054;-55
2023/05/26 00:54:09;;;;;;;32.47;7.03;;;9.30;99.90;;;;;;4966997;28;20050;-56
2023/05/26 00:56:35;;;;;;;31.58;5.97;;;9.30;99.90;;;;;;4984583;28;20046;-55
2023/05/26 00:59:05;;;;;;;33.28;6.78;;;9.20;99.90;;;;;;4984427;28;20050;-56
2023/05/26 01:01:32;;;;;;;32.25;6.40;;;9.20;99.90;;;;;;4966534;28;20136;-55
2023/05/26 01:03:58;;;;;;;30.48;6.07;;;9.20;99.90;;;;;;4968245;28;20053;-57
2023/05/26 01:06:24;;;;;;;23.42;5.55;;;9.20;99.90;;;;;;4988160;28;20134;-56
2023/05/26 01:08:50;;;;;;;29.05;5.70;;;9.20;99.90;;;;;;4988003;28;20157;-56
2023/05/26 01:11:30;;;;;;;28.52;6.25;;;9.20;99.90;;;;;;4988142;28;20046;-55
2023/05/26 01:14:25;;;;;;;30.42;6.70;;;9.20;99.90;;;;;;4987559;28;20102;-56
2023/05/26 01:17:03;;;;;;;29.58;6.60;;;9.20;99.90;;;;;;4987972;28;20065;-55
2023/05/26 01:19:55;;;;;;;26.90;6.43;;;9.20;99.90;;;;;;4995882;28;20072;-56
2023/05/26 01:22:36;;;;;;;35.80;6.78;;;9.20;99.90;;;;;;5007654;28;20564;-54
2023/05/26 01:25:35;;;;;;;28.45;5.93;;;9.10;99.90;;;;;;5006887;28;20045;-54
2023/05/26 01:28:06;;;;;;;26.95;6.45;;;9.10;99.90;;;;;;5006246;28;20052;-57
2023/05/26 01:30:34;;;;;;;26.40;5.65;;;9.10;99.90;;;;;;5007493;28;20034;-58
2023/05/26 01:32:59;;;;;;;25.80;5.35;;;9.10;99.90;;;;;;5007732;28;20077;-57
2023/05/26 01:35:25;;;;;;;25.02;5.80;;;9.00;99.90;;;;;;5006783;28;20127;-55
2023/05/26 01:37:52;;;;;;;27.05;6.03;;;9.10;99.90;;;;;;5007204;28;20042;-55
2023/05/26 01:40:18;;;;;;;32.13;6.60;;;9.10;99.90;;;;;;5007536;28;20124;-56
2023/05/26 01:43:01;;;;;;;31.17;6.15;;;9.10;99.90;;;;;;5006776;28;20064;-56
2023/05/26 01:45:35;;;;;;;29.55;5.95;;;9.10;99.90;;;;;;5007246;28;20086;-56
2023/05/26 01:48:02;;;;;;;31.30;6.50;;;9.00;99.90;;;;;;4989655;28;20554;-56
2023/05/26 01:50:37;;;;;;;28.83;6.57;;;9.00;99.90;;;;;;5007103;28;20161;-56
2023/05/26 01:53:06;;;;;;;;;;;9.00;99.90;;;;;;5007646;28;20319;-57
2023/05/26 01:55:34;;;;;;;30.08;6.05;;;8.90;99.90;;;;;;4989136;28;19928;-55
2023/05/26 01:58:01;;;;;;;24.63;5.55;;;8.90;99.90;;;;;;5006717;28;20484;-56
2023/05/26 02:00:27;;;;;;;31.38;6.50;;;9.00;99.90;;;;;;4989114;28;20045;-56
2023/05/26 02:02:53;;;;;;;27.77;6.13;;;9.00;99.90;;;;;;5006497;28;20060;-56
2023/05/26 02:05:18;;;;;;;30.00;6.68;;;9.00;99.90;;;;;;5006423;28;20538;-54
2023/05/26 02:07:45;;;;;;;30.23;6.32;;;9.00;99.90;;;;;;5006636;28;20042;-57
2023/05/26 02:10:11;;;;;;;30.05;6.03;;;9.00;99.90;;;;;;5006931;28;20038;-56
2023/05/26 02:12:37;;;;;;;30.13;6.55;;;9.00;99.90;;;;;;5005451;28;20529;-55
2023/05/26 02:15:03;;;;;;;32.58;6.30;;;9.00;99.90;;;;;;5006431;28;20046;-56
2023/05/26 02:17:28;;;;;;;29.63;6.45;;;9.00;99.90;;;;;;5005993;28;20042;-56
2023/05/26 02:19:54;;;;;;;30.33;5.95;;;9.00;99.90;;;;;;5005930;28;20389;-56
2023/05/26 02:22:20;;;;;;;27.35;6.07;;;8.90;99.90;;;;;;5006581;28;20050;-56
2023/05/26 02:24:46;;;;;;;23.60;5.93;;;8.90;99.90;;;;;;5006462;28;20034;-56
2023/05/26 02:27:11;;;;;;;32.10;6.38;;;8.90;99.90;;;;;;5005623;28;20049;-56
2023/05/26 02:29:37;;;;;;;28.15;5.88;;;8.90;99.90;;;;;;5005824;28;20053;-55
2023/05/26 02:32:03;;;;;;;31.63;5.57;;;8.90;99.90;;;;;;5006487;28;20096;-56
2023/05/26 02:34:28;;;;;;;34.60;6.35;;;8.90;99.90;;;;;;5006089;28;20034;-54
2023/05/26 02:36:55;;;;;;;31.27;6.18;;;9.30;99.90;;;;;;5005929;28;20053;-56
2023/05/26 02:39:21;;;;;;;28.02;6.32;;;9.00;99.90;;;;;;5006090;28;20046;-55
2023/05/26 02:41:47;;;;;;;26.27;5.97;;;9.00;99.90;;;;;;5006179;28;20054;-56
2023/05/26 02:44:13;;;;;;;31.90;6.88;;;9.00;99.90;;;;;;5005146;28;20045;-54
2023/05/26 02:46:39;;;;;;;32.53;5.95;;;8.90;99.90;;;;;;5006098;28;20037;-56
2023/05/26 02:49:05;;;;;;;26.10;6.43;;;9.00;99.90;;;;;;5006260;28;20457;-56
2023/05/26 02:51:32;;;;;;;35.75;6.53;;;8.90;99.90;;;;;;5006110;28;20045;-56
2023/05/26 02:53:58;;;;;;;23.23;5.80;;;9.00;99.90;;;;;;5005760;28;20077;-57
2023/05/26 02:56:23;;;;;;;32.40;5.95;;;8.90;99.90;;;;;;4988362;28;20042;-54
2023/05/26 02:58:49;;;;;;;29.55;6.78;;;8.90;99.90;;;;;;5005497;28;20042;-57
2023/05/26 03:01:15;;;;;;;32.45;5.20;;;8.90;99.90;;;;;;4987617;28;20042;-56
2023/05/26 03:03:40;;;;;;;32.08;6.50;;;9.10;99.90;;;;;;5005424;28;20416;-55
2023/05/26 03:06:06;;;;;;;31.38;5.97;;;8.90;99.90;;;;;;5006125;28;20041;-56
2023/05/26 03:08:31;;;;;;;28.20;5.95;;;8.90;99.90;;;;;;5005909;28;20396;-56
2023/05/26 03:10:57;;;;;;;31.20;6.93;;;9.30;99.90;;;;;;5004870;28;20524;-57
2023/05/26 03:13:22;;;;;;;27.23;6.57;;;8.90;99.90;;;;;;5004680;28;20054;-56
2023/05/26 03:15:49;;;;;;;26.83;5.70;;;8.80;99.90;;;;;;5005437;28;20053;-56
2023/05/26 03:18:16;;;;;;;27.30;6.28;;;8.90;99.90;;;;;;5005037;28;20421;-56
2023/05/26 03:20:43;;;;;;;35.47;6.50;;;8.80;99.90;;;;;;5005659;28;20116;-56
2023/05/26 03:23:08;;;;;;;30.17;6.32;;;8.80;99.90;;;;;;5005117;28;20057;-56
2023/05/26 03:25:34;;;;;;;26.17;5.68;;;8.80;99.90;;;;;;5005106;28;20310;-56
2023/05/26 03:28:00;;;;;;;28.83;5.70;;;8.80;99.90;;;;;;5004028;28;20046;-55
2023/05/26 03:30:25;;;;;;;28.38;6.32;;;8.90;99.90;;;;;;5005176;28;20512;-55
2023/05/26 03:32:51;;;;;;;30.98;6.22;;;8.80;99.90;;;;;;5005448;28;20281;-55
2023/05/26 03:35:16;;;;;;;33.85;6.13;;;8.80;99.90;;;;;;5004940;28;20129;-56
2023/05/26 03:37:42;;;;;;;30.95;6.20;;;8.80;99.90;;;;;;5005324;28;20034;-54
2023/05/26 03:40:09;;;;;;;27.85;6.22;;;8.80;99.90;;;;;;4988046;28;20567;-55
2023/05/26 03:42:34;;;;;;;33.03;5.95;;;8.90;99.90;;;;;;5004378;28;20452;-55
2023/05/26 03:45:00;;;;;;;30.15;6.75;;;8.90;99.90;;;;;;5005442;28;20041;-56
2023/05/26 03:47:26;;;;;;;23.98;6.05;;;8.90;99.90;;;;;;5004850;28;20440;-55
2023/05/26 03:49:51;;;;;;;27.70;5.38;;;8.90;99.90;;;;;;4971176;28;20046;-57
2023/05/26 03:52:17;;;;;;;29.70;6.05;;;8.90;99.90;;;;;;5004847;28;20562;-56
2023/05/26 03:54:42;;;;;;;29.35;6.20;;;8.90;99.90;;;;;;5005060;28;20103;-56
2023/05/26 03:57:08;;;;;;;31.90;6.25;;;8.90;99.90;;;;;;5005109;28;20045;-56
2023/05/26 03:59:34;;;;;;;31.17;6.32;;;9.00;99.90;;;;;;4986880;28;20045;-55
2023/05/26 04:01:59;;;;;;;33.70;5.75;;;9.20;99.90;;;;;;4986741;28;20046;-56
2023/05/26 04:04:25;;;;;;;29.92;6.25;;;9.00;99.90;;;;;;5004995;28;20038;-56
2023/05/26 04:06:50;;;;;;;28.42;6.40;;;9.00;99.90;;;;;;5005041;28;20366;-55
2023/05/26 04:09:16;;;;;;;30.25;6.00;;;9.10;99.90;;;;;;5004568;28;20037;-55
2023/05/26 04:11:41;;;;;;;33.55;6.18;;;9.10;99.90;;;;;;5004940;28;20056;-54
2023/05/26 04:14:07;;;;;;;31.23;5.75;;;9.10;99.90;;;;;;5004483;28;20460;-54
2023/05/26 04:16:33;;;;;;;24.45;5.75;;;9.10;99.90;;;;;;4986942;28;20058;-56
2023/05/26 04:18:59;;;;;;;32.00;5.65;;;9.20;99.90;;;;;;5004862;28;20046;-56
2023/05/26 04:21:25;;;;;;;26.77;6.18;;;9.20;99.90;;;;;;5004750;28;20038;-56
2023/05/26 04:23:52;;;;;;;30.92;5.93;;;9.30;99.90;;;;;;5004062;28;20050;-56
2023/05/26 04:26:18;;;;;;;30.38;6.72;;;9.30;99.90;;;;;;5004576;28;20038;-56
2023/05/26 04:28:45;;;;;;;32.88;7.55;;;9.40;99.90;;;;;;5003817;28;20046;-55
2023/05/26 04:31:12;;;;;;;24.95;5.72;;;9.40;99.90;;;;;;5004807;28;20488;-55
2023/05/26 04:33:40;;;;;;;35.45;6.78;;;9.40;99.90;;;;;;5004794;28;20097;-56
2023/05/26 04:36:08;;;;;;;28.25;6.43;;;9.40;99.90;;;;;;5004710;28;20048;-54
2023/05/26 04:38:41;;;;;;;29.02;6.45;;;9.50;99.90;;;;;;5005027;28;20033;-56
2023/05/26 04:41:07;;;;;;;30.45;6.00;;;9.50;99.90;;;;;;5008431;28;20515;-55
2023/05/26 04:43:35;;;;;;;31.95;6.18;;;9.70;99.90;;;;;;5007705;28;20121;-55
2023/05/26 04:46:02;;;;;;;26.30;6.05;;;9.90;99.90;;;;;;5008170;28;20042;-56
2023/05/26 04:48:28;;;;;;;33.00;6.38;;;10.20;99.90;;;;;;5007856;28;20098;-55
2023/05/26 04:50:54;;;;;;;28.42;7.00;;;10.60;99.90;;;;;;5008077;28;20053;-56
2023/05/26 04:53:20;;;;;;;25.80;5.28;;;10.80;99.90;;;;;;5008135;28;20041;-56
2023/05/26 04:55:47;;;;;;;24.85;5.47;;;10.80;99.90;;;;;;5007747;28;20038;-56
2023/05/26 04:58:12;;;;;;;27.80;6.07;;;10.60;99.90;;;;;;4989888;28;20049;-58
2023/05/26 05:00:38;;;;;;;24.88;6.13;;;10.40;99.90;;;;;;5008365;28;20484;-54
2023/05/26 05:03:04;;;;;;;22.42;5.85;;;10.30;99.90;;;;;;5007475;28;20046;-56
2023/05/26 05:05:30;;;;;;;28.48;5.90;;;10.30;99.90;;;;;;5008007;28;20053;-56
2023/05/26 05:07:56;;;;;;;24.67;6.28;;;10.30;99.90;;;;;;5008048;28;20401;-56
2023/05/26 05:10:21;;;;;;;24.65;5.65;;;10.40;99.90;;;;;;5007595;28;20037;-56
2023/05/26 05:12:47;;;;;;;31.77;6.38;;;10.40;99.90;;;;;;5006371;28;20677;-54
2023/05/26 05:15:13;;;;;;;30.52;7.32;;;10.40;99.90;;;;;;5008339;28;20057;-57
2023/05/26 05:17:39;;;;;;;27.45;5.80;;;10.40;99.90;;;;;;5008206;28;20095;-56
2023/05/26 05:20:07;;;;;;;25.50;6.50;;;10.90;99.90;;;;;;5007477;28;20451;-56
2023/05/26 05:22:32;;;;;;;25.02;5.90;;;11.30;99.90;;;;;;5007588;28;20045;-56
2023/05/26 05:24:58;;;;;;;21.08;5.55;;;11.50;99.90;;;;;;4989523;28;20046;-56
2023/05/26 05:27:24;;;;;;;26.77;5.78;;;11.40;99.90;;;;;;5006406;28;20052;-55
2023/05/26 05:29:49;;;;;;;25.15;5.30;;;11.60;99.90;;;;;;5007592;28;20436;-56
2023/05/26 05:32:15;;;;;;;18.90;4.97;;;11.60;99.90;;;;;;5007642;28;20391;-57
2023/05/26 05:34:41;;;;;;;27.00;6.50;;;11.70;99.90;;;;;;5007564;28;20132;-55
2023/05/26 05:37:06;;;;;;;24.73;5.50;;;12.20;99.90;;;;;;5006766;28;20516;-56
2023/05/26 05:39:32;;;;;;;25.73;5.63;;;12.40;99.90;;;;;;5007422;28;20046;-55
2023/05/26 05:41:57;;;;;;;23.40;5.75;;;12.70;99.90;;;;;;5006416;28;20038;-55
2023/05/26 05:44:23;;;;;;;22.90;5.72;;;13.00;99.90;;;;;;5006705;28;20113;-56
2023/05/26 05:46:49;;;;;;;25.77;6.22;;;13.40;99.90;;;;;;5007070;28;20045;-55
2023/05/26 05:49:14;;;;;;;23.25;5.68;;;13.80;99.90;;;;;;5007134;28;20046;-55
2023/05/26 05:51:40;;;;;;;25.75;4.80;;;13.90;99.90;;;;;;5006777;28;20053;-55
2023/05/26 05:54:05;;;;;;;19.55;5.45;;;14.10;99.90;;;;;;5006384;28;20052;-57
2023/05/26 05:56:31;;;;;;;23.08;5.47;;;14.10;99.90;;;;;;5005972;28;20053;-55
2023/05/26 05:58:56;;;;;;;22.48;5.40;;;14.20;99.90;;;;;;5007164;28;20056;-56
2023/05/26 06:01:22;;;;;;;20.73;4.78;;;14.30;99.90;;;;;;5006368;28;20112;-56
2023/05/26 06:03:48;;;;;;;20.15;4.97;;;14.30;99.90;;;;;;5006534;28;20046;-56
2023/05/26 06:06:13;;;;;;;22.92;5.10;;;14.30;99.90;;;;;;5007009;28;20045;-56
2023/05/26 06:08:39;;;;;;;20.17;5.05;;;14.50;99.90;;;;;;5006570;28;20050;-56
2023/05/26 06:11:04;;;;;;;23.25;5.38;;;14.60;99.90;;;;;;5005981;28;20034;-55
2023/05/26 06:13:30;;;;;;;22.40;5.30;;;14.70;99.90;;;;;;5005687;28;20306;-56
2023/05/26 06:15:56;;;;;;;21.33;5.07;;;15.00;99.90;;;;;;5006475;28;20054;-56
2023/05/26 06:18:21;;;;;;;19.65;4.85;;;15.10;99.90;;;;;;5006172;28;20038;-56
2023/05/26 06:20:47;;;;;;;23.52;5.50;;;14.80;99.90;;;;;;5006769;28;20845;-58
2023/05/26 06:23:13;;;;;;;21.17;4.97;;;14.80;99.90;;;;;;5006448;28;20046;-56
2023/05/26 06:25:39;;;;;;;20.20;4.78;;;15.00;99.90;;;;;;5006269;28;20052;-52
2023/05/26 06:28:04;;;;;;;20.05;4.68;;;15.20;99.80;;;;;;5005517;28;20041;-56
2023/05/26 06:30:30;;;;;;;18.63;4.70;;;15.20;99.50;;;;;;5006378;28;20077;-56
2023/05/26 06:32:55;;;;;;;18.67;4.10;;;15.30;99.10;;;;;;5006340;28;20050;-56
2023/05/26 06:35:23;;;;;;;20.58;4.72;;;15.50;98.60;;;;;;5006036;28;20069;-57
2023/05/26 06:37:48;;;;;;;18.83;5.10;;;15.40;98.60;;;;;;4988287;28;20046;-59
2023/05/26 06:40:14;;;;;;;19.60;4.78;;;15.50;98.60;;;;;;5006698;28;20129;-55
2023/05/26 06:42:40;;;;;;;16.42;4.20;;;15.50;98.60;;;;;;5004792;28;20077;-56
2023/05/26 06:45:06;;;;;;;19.35;4.50;;;15.90;98.50;;;;;;5006264;28;20198;-55
2023/05/26 06:47:32;;;;;;;23.35;4.95;;;16.10;98.30;;;;;;5005940;28;20459;-56
2023/05/26 06:49:57;;;;;;;23.10;4.90;;;16.20;97.50;;;;;;5005721;28;20433;-56
2023/05/26 06:52:23;;;;;;;18.13;4.40;;;16.20;97.30;;;;;;5005385;28;20042;-54
2023/05/26 06:54:48;;;;;;;23.67;5.25;;;15.90;97.40;;;;;;5006014;28;20069;-56
2023/05/26 06:57:14;;;;;;;21.67;4.50;;;15.80;97.80;;;;;;5005807;28;20052;-56
2023/05/26 06:59:41;;;;;;;18.15;4.28;;;16.00;97.70;;;;;;5005404;28;20072;-57
2023/05/26 07:02:07;;;;;;;20.42;4.45;;;16.20;97.30;;;;;;4987497;28;20050;-57
2023/05/26 07:04:33;;;;;;;18.40;4.55;;;16.50;97.20;;;;;;5005815;28;20431;-56
2023/05/26 07:06:58;;;;;;;16.73;4.63;;;17.00;96.70;;;;;;5005953;28;20540;-56
2023/05/26 07:09:24;;;;;;;19.42;4.57;;;16.90;96.30;;;;;;5005060;28;20493;-57
2023/05/26 07:11:50;;;;;;;14.50;3.70;;;16.80;96.50;;;;;;5004944;28;20042;-58
2023/05/26 07:14:15;;;;;;;12.32;3.78;;;16.90;96.10;;;;;;4987879;28;20084;-56
2023/05/26 07:16:41;;;;;;;22.35;4.88;;;16.90;95.40;;;;;;5005889;28;20049;-56
2023/05/26 07:19:06;;;;;;;15.73;3.90;;;17.00;95.60;;;;;;5006708;28;20034;-56
2023/05/26 07:21:32;;;;;;;19.98;4.40;;;17.20;95.50;;;;;;5007245;28;20053;-56
2023/05/26 07:23:58;;;;;;;15.98;3.85;;;17.30;95.30;;;;;;5006158;28;20061;-58
2023/05/26 07:26:24;;;;;;;15.00;3.75;;;17.40;95.20;;;;;;5005728;28;20409;-55
2023/05/26 07:28:50;;;;;;;12.60;3.78;;;17.50;95.10;;;;;;5006763;28;20046;-58
2023/05/26 07:31:17;;;;;;;17.08;4.28;;;17.60;94.70;;;;;;5007016;28;20049;-58
2023/05/26 07:33:43;;;;;;;14.77;3.88;;;17.50;94.70;;;;;;5006566;28;20049;-56
2023/05/26 07:36:08;;;;;;;19.25;3.33;;;17.30;93.90;;;;;;5006496;28;20615;-57
2023/05/26 07:38:34;;;;;;;10.85;3.20;;;17.10;93.70;;;;;;5006279;28;20034;-57
2023/05/26 07:40:59;;;;;;;14.25;3.22;;;17.10;93.90;;;;;;5006013;28;20496;-58
2023/05/26 07:43:25;;;;;;;13.68;3.63;;;17.10;94.00;;;;;;5005785;28;20040;-57
2023/05/26 07:45:51;;;;;;;13.73;3.30;;;17.00;93.90;;;;;;5007117;28;20135;-57
2023/05/26 07:48:16;;;;;;;16.75;3.10;;;17.10;94.00;;;;;;5007024;28;20045;-58
2023/05/26 07:50:42;;;;;;;12.32;2.90;;;17.20;94.00;;;;;;5006433;28;20045;-57
2023/05/26 07:53:08;;;;;;;13.93;3.22;;;17.20;93.80;;;;;;5006650;28;20038;-57
2023/05/26 07:55:33;;;;;;;12.43;3.20;;;17.30;93.80;;;;;;5006784;28;20038;-58
2023/05/26 07:58:00;;;;;;;14.48;3.53;;;17.30;93.60;;;;;;5005770;28;20037;-57
2023/05/26 08:00:25;;;;;;;15.43;3.47;;;17.30;93.70;;;;;;5005863;28;20137;-58
2023/05/26 08:02:51;;;;;;;12.15;2.40;;;17.20;93.50;;;;;;5006949;28;20117;-58
2023/05/26 08:05:16;;;;;;;11.80;3.30;;;17.20;92.90;;;;;;4988597;28;20160;-57
2023/05/26 08:07:42;;;;;;;15.23;3.50;;;17.10;93.50;;;;;;5006091;28;20089;-58
2023/05/26 08:10:08;;;;;;;12.65;2.78;;;17.10;93.80;;;;;;5006291;28;20038;-57
2023/05/26 08:12:34;;;;;;;10.98;3.10;;;17.00;92.90;;;;;;5005681;28;20066;-57
2023/05/26 08:15:03;;;;;;;18.77;3.53;;;17.00;93.30;;;;;;5009245;28;20581;-58
2023/05/26 08:17:28;;;;;;;9.52;2.60;;;17.10;93.30;;;;;;5010226;28;20129;-58
2023/05/26 08:19:54;;;;;;;9.23;2.47;;;17.10;93.40;;;;;;5008866;28;20137;-58
2023/05/26 08:22:19;;;;;;;9.13;2.67;;;17.10;92.70;;;;;;5008936;28;20057;-57
2023/05/26 08:24:45;;;;;;;11.70;2.88;;;17.10;92.80;;;;;;5008516;28;20034;-57
2023/05/26 08:27:10;;;;;;;10.55;2.95;;;17.10;93.20;;;;;;5007195;28;20129;-57
2023/05/26 08:29:36;;;;;;;7.45;3.00;;;17.00;92.70;;;;;;5008899;28;20048;-56
2023/05/26 08:32:02;;;;;;;11.90;3.30;;;17.00;92.90;;;;;;5008474;28;20046;-58
2023/05/26 08:34:27;;;;;;;12.85;2.95;;;17.10;92.90;;;;;;4999842;28;20053;-57
2023/05/26 08:36:53;;;;;;;9.82;2.58;;;17.30;93.00;;;;;;5004897;28;20093;-58
2023/05/26 08:39:18;;;;;;;16.38;3.20;;;17.60;93.10;;;;;;5009508;28;20038;-58
2023/05/26 08:41:55;;;;;;;8.38;2.40;;;17.70;92.60;;;;;;4992340;28;20042;-58
2023/05/26 08:44:21;;;;;;;11.73;3.45;;;17.50;91.40;;;;;;4993092;28;20054;-58
2023/05/26 08:46:55;;;;;;;10.32;2.28;;;17.50;92.80;;;;;;5004975;28;20092;-57
2023/05/26 08:49:22;;;;;;;11.93;2.90;;;17.60;92.20;;;;;;4989610;28;20050;-56
2023/05/26 08:52:06;;;;;;;13.25;3.17;;;17.70;92.30;;;;;;4991694;28;20077;-58
2023/05/26 08:54:31;;;;;;;14.55;2.50;;;17.80;91.90;;;;;;5009763;28;20038;-57
2023/05/26 08:56:58;;;;;;;8.73;2.28;;;17.80;91.80;;;;;;5009298;28;20124;-56
2023/05/26 08:59:25;;;;;;;11.98;2.17;;;17.80;91.20;;;;;;5009598;28;20049;-56
2023/05/26 09:01:50;;;;;;;11.45;2.45;;;17.60;91.10;;;;;;5009331;28;20045;-57
2023/05/26 09:04:16;;;;;;;12.95;3.10;;;17.50;91.80;;;;;;5008624;28;20185;-56
2023/05/26 09:06:44;;;;;;;13.63;3.28;;;17.60;91.90;;;;;;5009853;28;20049;-56
2023/05/26 09:09:11;;;;;;;10.65;2.90;;;17.70;91.70;;;;;;5008540;28;20092;-57
2023/05/26 09:11:43;;;;;;;12.20;3.15;;;17.80;92.00;;;;;;5008421;28;20060;-57
2023/05/26 09:14:14;;;;;;;12.35;3.53;;;18.00;91.10;;;;;;5006508;28;20049;-57
2023/05/26 09:16:39;;;;;;;12.13;3.00;;;18.00;91.30;;;;;;5008232;28;20061;-56
2023/05/26 09:19:06;;;;;;;9.75;2.63;;;18.20;91.60;;;;;;4990211;28;20394;-56
2023/05/26 09:21:32;;;;;;;14.88;2.88;;;18.20;91.50;;;;;;5007898;28;20060;-52
2023/05/26 09:23:59;;;;;;;12.32;2.95;;;18.30;91.20;;;;;;5008308;28;20046;-53
2023/05/26 09:26:30;;;;;;;14.75;2.88;;;18.30;90.70;;;;;;5006786;28;20115;-56
2023/05/26 09:28:57;;;;;;;8.75;2.60;;;18.40;91.00;;;;;;5009110;28;20049;-57
2023/05/26 09:31:23;;;;;;;10.45;2.72;;;18.50;91.00;;;;;;5008163;28;20073;-56
2023/05/26 09:33:49;;;;;;;11.15;2.90;;;18.70;91.20;;;;;;5008408;28;20046;-59
2023/05/26 09:36:21;;;;;;;10.85;3.03;;;18.90;91.10;;;;;;5008037;28;20042;-55
2023/05/26 09:38:49;;;;;;;7.10;2.38;;;18.90;90.70;;;;;;5003058;28;20045;-65
2023/05/26 09:41:19;;;;;;;14.68;3.15;;;19.00;90.80;;;;;;4999101;28;20046;-63
2023/05/26 09:43:45;;;;;;;8.10;2.90;;;18.80;90.50;;;;;;5006200;28;20084;-64
2023/05/26 09:46:22;;;;;;;8.63;2.70;;;19.00;91.10;;;;;;4994793;28;20073;-64
2023/05/26 09:48:51;;;;;;;11.55;3.58;;;19.10;90.50;;;;;;4996138;28;20509;-66
2023/05/26 09:51:20;;;;;;;10.82;2.90;;;19.10;90.80;;;;;;4999735;28;20034;-63
2023/05/26 09:53:47;;;;;;;10.02;3.30;;;19.30;91.30;;;;;;4997714;28;20053;-64
2023/05/26 09:56:16;;;;;;;11.35;2.58;;;19.50;91.20;;;;;;5005737;28;20475;-63
2023/05/26 09:58:45;;;;;;;10.93;3.00;;;19.40;90.60;;;;;;5006567;28;20093;-64
2023/05/26 10:01:12;;;;;;;10.20;3.05;;;19.50;90.20;;;;;;5001501;28;20066;-64
2023/05/26 10:03:37;;;;;;;14.50;3.20;;;19.40;90.60;;;;;;5001859;28;20046;-57
2023/05/26 10:06:04;;;;;;;15.57;3.60;;;19.40;90.40;;;;;;4997313;28;20205;-56
2023/05/26 10:08:31;;;;;;;12.02;3.38;;;19.10;91.00;;;;;;4991171;28;20127;-62
2023/05/26 10:10:57;;;;;;;11.05;3.17;;;19.30;91.10;;;;;;4998994;28;20050;-62
2023/05/26 10:13:23;;;;;;;38.75;6.38;;;19.30;91.00;;;;;;4990031;28;20053;-62
2023/05/26 10:15:49;;;;;;;32.67;4.47;;;19.30;90.60;;;;;;5004357;28;20298;-62
2023/05/26 10:18:15;;;;;;;18.17;4.82;;;19.40;90.70;;;;;;4992588;28;20038;-58
2023/05/26 10:20:45;;;;;;;18.20;4.28;;;19.50;90.70;;;;;;4985272;28;20049;-58
2023/05/26 10:23:19;;;;;;;19.52;4.78;;;19.40;90.70;;;;;;4984985;28;20050;-57
2023/05/26 10:26:07;;;;;;;11.93;3.08;;;19.60;91.40;;;;;;4984814;28;20050;-58
2023/05/26 10:28:43;;;;;;;15.93;3.47;;;19.70;89.10;;;;;;4985096;28;20046;-60
2023/05/26 10:31:09;;;;;;;13.02;3.33;;;19.80;90.00;;;;;;5001545;28;20346;-60
2023/05/26 10:33:43;;;;;;;16.27;3.92;;;19.90;90.80;;;;;;5004690;28;20066;-58
2023/05/26 10:36:14;;;;;;;10.60;3.28;;;20.10;90.60;;;;;;5004076;28;20038;-58
2023/05/26 10:38:50;;;;;;;17.13;3.70;;;20.00;90.60;;;;;;5002139;28;20425;-59
2023/05/26 10:41:32;;;;;;;16.80;3.95;;;19.80;91.00;;;;;;4984000;28;20121;-59
2023/05/26 10:44:00;;;;;;;13.57;4.05;;;19.80;90.70;;;;;;4985064;28;20060;-58
2023/05/26 10:46:37;;;;;;;13.95;3.38;;;19.90;91.10;;;;;;4984181;28;20052;-59
2023/05/26 10:49:03;;;;;;;15.65;3.45;;;20.00;91.20;;;;;;4999752;28;20454;-59
2023/05/26 10:51:32;;;;;;;11.57;3.33;;;19.90;90.40;;;;;;5025394;28;20041;-59
2023/05/26 10:53:58;;;;;;;16.95;3.97;;;19.80;90.70;;;;;;5026015;28;20049;-60
2023/05/26 10:56:41;;;;;;;12.85;3.63;;;20.00;90.80;;;;;;5024763;28;20045;-60
2023/05/26 10:59:07;;;;;;;12.55;3.40;;;20.10;90.20;;;;;;5026980;28;20041;-61
2023/05/26 11:01:33;;;;;;;13.93;3.83;;;20.20;90.50;;;;;;5026415;28;20456;-61
2023/05/26 11:04:05;;;;;;;13.52;3.55;;;20.20;91.40;;;;;;5026359;28;20474;-60
2023/05/26 11:06:50;;;;;;;11.45;3.33;;;20.30;91.30;;;;;;4999689;28;20050;-59
2023/05/26 11:09:19;;;;;;;13.73;3.83;;;20.10;90.20;;;;;;5005135;28;20050;-59
2023/05/26 11:11:49;;;;;;;15.27;3.53;;;19.70;91.10;;;;;;4987178;28;20052;-60
2023/05/26 11:14:14;;;;;;;11.95;3.50;;;19.40;91.00;;;;;;4987560;28;20073;-60
2023/05/26 11:16:44;;;;;;;14.60;3.45;;;19.20;91.20;;;;;;5004758;28;20493;-60
2023/05/26 11:19:10;;;;;;;13.82;3.80;;;19.40;91.40;;;;;;5005817;28;20049;-60
2023/05/26 11:21:36;;;;;;;15.65;3.50;;;19.60;91.10;;;;;;5005260;28;20061;-60
2023/05/26 11:24:03;;;;;;;14.75;3.80;;;19.90;91.30;;;;;;5005641;28;20224;-60
2023/05/26 11:26:30;;;;;;;14.20;3.85;;;19.70;91.30;;;;;;5004255;28;20090;-58
2023/05/26 11:28:59;;;;;;;13.65;4.13;;;19.60;91.60;;;;;;5005640;28;20060;-58
2023/05/26 11:31:25;;;;;;;12.25;3.55;;;19.50;91.10;;;;;;5005015;28;20504;-59
2023/05/26 11:33:52;;;;;;;10.43;3.45;;;19.50;91.10;;;;;;5004827;28;20121;-59
2023/05/26 11:36:19;;;;;;;12.77;3.60;;;19.50;91.20;;;;;;5006511;28;20115;-59
2023/05/26 11:38:47;;;;;;;15.88;3.38;;;19.30;91.20;;;;;;5006466;28;20484;-58
2023/05/26 11:41:15;;;;;;;15.05;3.30;;;19.30;91.80;;;;;;5005203;28;20121;-58
2023/05/26 11:43:43;;;;;;;13.88;4.20;;;19.10;91.80;;;;;;5005064;28;20050;-56
2023/05/26 11:46:11;;;;;;;17.63;4.05;;;18.90;91.60;;;;;;5004691;28;20037;-57
2023/05/26 11:48:39;;;;;;;15.40;4.13;;;18.80;91.60;;;;;;5003818;28;20050;-57
2023/05/26 11:51:13;;;;;;;15.90;4.05;;;18.60;91.80;;;;;;5002701;28;20042;-57
2023/05/26 11:53:40;;;;;;;16.08;4.32;;;18.50;91.50;;;;;;5002778;28;20037;-57
2023/05/26 11:56:13;;;;;;;15.07;3.97;;;18.60;92.00;;;;;;4984065;28;20046;-58
2023/05/26 11:58:45;;;;;;;12.57;3.55;;;18.80;91.10;;;;;;4986083;28;20042;-57
2023/05/26 12:01:11;;;;;;;18.35;4.07;;;19.10;91.50;;;;;;5003128;28;20121;-56
2023/05/26 12:03:41;;;;;;;13.88;3.88;;;19.00;91.70;;;;;;5003250;28;20598;-59
2023/05/26 12:06:17;;;;;;;13.43;4.00;;;18.90;91.20;;;;;;5003663;28;20052;-57
2023/05/26 12:08:43;;;;;;;17.80;4.43;;;18.80;91.50;;;;;;4986880;28;20101;-57
2023/05/26 12:11:21;;;;;;;18.27;4.15;;;18.90;91.90;;;;;;4986970;28;20060;-57
2023/05/26 12:13:49;;;;;;;17.00;4.18;;;18.80;91.80;;;;;;5006269;28;20115;-58
2023/05/26 12:16:31;;;;;;;15.73;4.15;;;18.60;92.40;;;;;;5006160;28;20042;-58
2023/05/26 12:18:58;;;;;;;16.08;4.43;;;18.60;91.80;;;;;;5006432;28;20159;-58
2023/05/26 12:21:25;;;;;;;14.48;3.80;;;18.60;92.40;;;;;;5006202;28;20095;-57
2023/05/26 12:23:53;;;;;;;19.27;4.25;;;18.50;92.40;;;;;;4988403;28;20424;-59
2023/05/26 12:26:30;;;;;;;18.58;4.47;;;18.60;92.40;;;;;;5004754;28;20049;-57
2023/05/26 12:29:16;;;;;;;15.45;4.10;;;18.50;92.80;;;;;;5004371;28;20051;-58
2023/05/26 12:31:42;;;;;;;14.43;3.67;;;18.60;93.00;;;;;;5004784;28;20046;-56
2023/05/26 12:34:10;;;;;;;17.92;4.30;;;18.80;93.20;;;;;;5004385;28;20049;-57
2023/05/26 12:36:36;;;;;;;11.65;3.75;;;18.80;92.60;;;;;;5004772;28;20038;-57
2023/05/26 12:39:02;;;;;;;12.55;3.72;;;18.70;92.50;;;;;;4986891;28;20050;-58
2023/05/26 12:41:28;;;;;;;15.48;4.35;;;18.50;92.80;;;;;;5005074;28;20045;-57